Time;durP1;ratioP1;P1;durP2;ratioP2;P2;SDS_P1;SDS_P2;PMS_P1;PMS_P2;Temp;Humidity;BMP_temperature;BMP_pressure;BME280_temperature;BME280_humidity;BME280_pressure;Samples;Min_cycle;Max_cycle;Signal;HPM_P1;HPM_P2
2024/04/12 00:01:47;;;;;;;1.63;1.10;;;23.70;53.70;;;;;;5467058;26;20456;-70
2024/04/12 00:04:18;;;;;;;2.50;1.17;;;23.70;53.70;;;;;;5468046;26;20509;-70
2024/04/12 00:07:00;;;;;;;1.77;1.20;;;23.70;53.70;;;;;;5467288;26;20445;-69
2024/04/12 00:09:25;;;;;;;1.80;1.40;;;23.70;53.70;;;;;;5467448;26;20444;-70
2024/04/12 00:11:53;;;;;;;1.50;1.00;;;23.70;53.80;;;;;;5467443;26;20461;-70
2024/04/12 00:14:19;;;;;;;1.27;0.90;;;23.60;53.70;;;;;;5467456;26;20269;-70
2024/04/12 00:16:50;;;;;;;1.80;1.30;;;23.60;53.70;;;;;;5466530;26;20457;-70
2024/04/12 00:19:21;;;;;;;2.70;1.10;;;23.60;53.70;;;;;;5464151;26;20555;-69
2024/04/12 00:21:56;;;;;;;1.53;1.20;;;23.60;53.70;;;;;;5465006;26;20521;-70
2024/04/12 00:24:25;;;;;;;2.03;1.40;;;23.60;53.70;;;;;;5463758;26;20444;-69
2024/04/12 00:26:53;;;;;;;2.23;1.53;;;23.70;53.80;;;;;;5463631;26;20452;-70
2024/04/12 00:29:26;;;;;;;1.30;1.00;;;23.60;53.70;;;;;;5462533;26;20598;-71
2024/04/12 00:32:13;;;;;;;1.80;1.20;;;23.70;53.80;;;;;;5463686;26;20521;-71
2024/04/12 00:34:47;;;;;;;2.83;1.20;;;23.60;53.70;;;;;;5464558;26;20445;-70
2024/04/12 00:37:15;;;;;;;1.10;1.00;;;23.70;53.80;;;;;;5465333;26;20532;-70
2024/04/12 00:39:47;;;;;;;1.80;1.40;;;23.60;53.80;;;;;;5464146;26;20912;-70
2024/04/12 00:42:14;;;;;;;1.27;1.10;;;23.60;53.80;;;;;;5464372;26;20606;-69
2024/04/12 00:44:42;;;;;;;3.00;1.43;;;23.60;53.80;;;;;;5464654;26;20512;-70
2024/04/12 00:47:20;;;;;;;1.40;1.10;;;23.60;53.80;;;;;;5465253;26;20497;-70
2024/04/12 00:49:49;;;;;;;1.50;1.37;;;23.70;53.80;;;;;;5465056;26;20495;-70
2024/04/12 00:52:37;;;;;;;1.73;1.20;;;23.60;53.80;;;;;;5463864;26;20460;-70
2024/04/12 00:55:07;;;;;;;3.53;1.10;;;23.60;53.80;;;;;;5464114;26;20468;-70
2024/04/12 00:57:38;;;;;;;1.47;1.10;;;23.60;53.80;;;;;;5464465;26;21003;-70
2024/04/12 01:00:19;;;;;;;2.00;1.17;;;23.60;53.80;;;;;;5464444;26;20873;-69
2024/04/12 01:02:48;;;;;;;1.40;0.93;;;23.60;53.80;;;;;;5465187;26;20445;-70
2024/04/12 01:05:18;;;;;;;1.73;1.30;;;23.60;53.80;;;;;;5464278;26;20506;-69
2024/04/12 01:07:48;;;;;;;1.57;1.30;;;23.60;53.80;;;;;;5463746;26;20501;-70
2024/04/12 01:10:29;;;;;;;1.33;1.17;;;23.60;53.80;;;;;;5463715;26;20496;-69
2024/04/12 01:12:57;;;;;;;1.67;1.20;;;23.60;53.80;;;;;;5464522;26;20460;-68
2024/04/12 01:15:31;;;;;;;1.20;1.00;;;23.60;53.80;;;;;;5463647;26;20440;-70
2024/04/12 01:17:57;;;;;;;1.60;1.50;;;23.60;53.80;;;;;;5463804;26;20979;-69
2024/04/12 01:20:25;;;;;;;4.40;1.40;;;23.60;53.80;;;;;;5463374;26;20461;-70
2024/04/12 01:22:57;;;;;;;1.47;1.10;;;23.60;53.80;;;;;;5462926;26;20491;-68
2024/04/12 01:25:24;;;;;;;1.60;1.10;;;23.60;53.80;;;;;;5463285;26;20453;-70
2024/04/12 01:27:49;;;;;;;1.33;1.10;;;23.60;53.80;;;;;;5462573;26;20481;-71
2024/04/12 01:30:20;;;;;;;1.60;1.03;;;23.60;53.80;;;;;;5461397;26;20505;-69
2024/04/12 01:32:50;;;;;;;1.97;1.37;;;23.60;53.80;;;;;;5460821;26;20797;-70
2024/04/12 01:35:22;;;;;;;1.80;1.30;;;23.60;53.80;;;;;;5462158;26;20504;-70
2024/04/12 01:37:51;;;;;;;1.80;1.37;;;23.60;53.80;;;;;;5461832;26;20441;-69
2024/04/12 01:40:17;;;;;;;1.63;1.00;;;23.60;53.80;;;;;;5461579;26;20501;-70
2024/04/12 01:42:43;;;;;;;1.27;1.10;;;23.60;53.80;;;;;;5459622;26;20448;-69
2024/04/12 01:45:13;;;;;;;1.47;1.00;;;23.60;53.80;;;;;;5461320;26;20448;-71
2024/04/12 01:47:39;;;;;;;1.50;1.30;;;23.60;53.80;;;;;;5461584;26;20449;-70
2024/04/12 01:50:05;;;;;;;1.57;1.20;;;23.60;53.80;;;;;;5461254;26;20445;-71
2024/04/12 01:52:33;;;;;;;1.60;1.07;;;23.60;53.80;;;;;;5462085;26;20480;-70
2024/04/12 01:55:05;;;;;;;1.30;1.20;;;23.60;53.80;;;;;;5462661;26;20589;-71
2024/04/12 01:57:41;;;;;;;1.70;1.10;;;23.60;53.90;;;;;;5462224;26;20445;-69
2024/04/12 02:00:07;;;;;;;4.27;1.50;;;23.60;53.80;;;;;;5462539;26;20444;-70
2024/04/12 02:02:32;;;;;;;1.50;1.27;;;23.60;53.80;;;;;;5462254;26;20579;-70
2024/04/12 02:04:58;;;;;;;1.20;1.10;;;23.60;53.80;;;;;;5462434;26;20990;-69
2024/04/12 02:07:27;;;;;;;1.47;1.20;;;23.60;53.80;;;;;;5461358;26;20224;-70
2024/04/12 02:09:58;;;;;;;1.40;1.10;;;23.60;53.80;;;;;;5460783;26;20457;-71
2024/04/12 02:12:26;;;;;;;1.40;1.13;;;23.60;53.90;;;;;;5460969;26;20524;-70
2024/04/12 02:14:54;;;;;;;1.30;1.20;;;23.60;53.90;;;;;;5461008;26;20804;-70
2024/04/12 02:17:20;;;;;;;1.57;1.40;;;23.60;53.80;;;;;;5460450;26;20449;-70
2024/04/12 02:19:46;;;;;;;1.30;1.03;;;23.60;53.80;;;;;;5458024;26;20626;-70
2024/04/12 02:22:12;;;;;;;2.07;1.20;;;23.60;53.90;;;;;;5460732;26;20235;-70
2024/04/12 02:24:40;;;;;;;2.00;1.30;;;23.60;53.80;;;;;;5461338;26;21057;-70
2024/04/12 02:27:06;;;;;;;1.63;1.33;;;23.60;53.90;;;;;;5461803;26;20223;-70
2024/04/12 02:29:34;;;;;;;1.30;1.10;;;23.60;53.80;;;;;;5461695;26;20571;-70
2024/04/12 02:32:00;;;;;;;1.30;1.10;;;23.60;53.90;;;;;;5462315;26;20269;-70
2024/04/12 02:34:26;;;;;;;1.20;1.10;;;23.60;53.90;;;;;;5461512;26;20461;-70
2024/04/12 02:36:52;;;;;;;1.47;1.10;;;23.60;53.90;;;;;;5462015;26;20497;-70
2024/04/12 02:39:23;;;;;;;1.20;1.10;;;23.60;53.90;;;;;;5462513;26;20223;-70
2024/04/12 02:41:49;;;;;;;2.77;1.30;;;23.60;53.90;;;;;;5460210;26;20496;-71
2024/04/12 02:44:14;;;;;;;3.53;1.20;;;23.60;53.90;;;;;;5461069;26;20551;-69
2024/04/12 02:46:40;;;;;;;1.50;1.10;;;23.60;53.90;;;;;;5460422;26;20453;-69
2024/04/12 02:49:10;;;;;;;1.70;1.40;;;23.60;53.90;;;;;;5461190;26;20215;-70
2024/04/12 02:51:36;;;;;;;1.40;1.10;;;23.60;53.90;;;;;;5461500;26;20328;-69
2024/04/12 02:54:01;;;;;;;1.47;1.03;;;23.60;53.90;;;;;;5461448;26;20441;-70
2024/04/12 02:56:27;;;;;;;2.07;1.30;;;23.60;53.90;;;;;;5460880;26;20514;-69
2024/04/12 02:58:54;;;;;;;1.30;1.20;;;23.60;53.90;;;;;;5460896;26;20261;-68
2024/04/12 03:01:24;;;;;;;2.27;1.20;;;23.60;53.90;;;;;;5461015;26;20231;-70
2024/04/12 03:03:58;;;;;;;1.50;1.20;;;23.60;53.90;;;;;;5461947;26;20516;-69
2024/04/12 03:06:31;;;;;;;1.40;1.20;;;23.60;54.40;;;;;;5461981;26;20452;-69
2024/04/12 03:09:00;;;;;;;1.60;1.20;;;23.50;53.80;;;;;;5460969;26;20441;-67
2024/04/12 03:11:34;;;;;;;1.67;1.30;;;23.60;53.90;;;;;;5460144;26;20457;-70
2024/04/12 03:14:09;;;;;;;1.33;1.10;;;23.50;53.80;;;;;;5460007;26;20453;-70
2024/04/12 03:16:46;;;;;;;1.20;1.07;;;23.50;53.80;;;;;;5460223;26;20464;-69
2024/04/12 03:19:14;;;;;;;1.40;1.10;;;23.60;53.90;;;;;;5459588;26;20887;-70
2024/04/12 03:21:43;;;;;;;1.93;1.13;;;23.60;53.90;;;;;;5458705;26;20548;-70
2024/04/12 03:24:09;;;;;;;1.17;1.00;;;23.50;53.80;;;;;;5458334;26;20500;-69
2024/04/12 03:26:36;;;;;;;1.37;1.13;;;23.50;53.80;;;;;;5458317;26;20449;-71
2024/04/12 03:29:05;;;;;;;1.30;1.13;;;23.60;53.90;;;;;;5457554;26;20516;-71
2024/04/12 03:31:38;;;;;;;1.80;1.47;;;23.60;53.90;;;;;;5458347;26;20612;-69
2024/04/12 03:34:06;;;;;;;2.07;1.23;;;23.50;53.80;;;;;;5458606;26;20583;-69
2024/04/12 03:44:44;;;;;;;2.10;1.17;;;23.50;53.90;;;;;;5474071;26;20516;-69
2024/04/12 03:47:10;;;;;;;1.60;1.23;;;23.50;53.90;;;;;;5459700;26;20440;-69
2024/04/12 03:49:39;;;;;;;1.30;1.20;;;23.50;53.90;;;;;;5457241;26;20444;-70
2024/04/12 03:52:11;;;;;;;1.70;1.30;;;23.50;53.90;;;;;;5458430;26;20460;-69
2024/04/12 03:54:37;;;;;;;1.30;1.07;;;23.50;53.90;;;;;;5461784;26;20493;-69
2024/04/12 03:57:06;;;;;;;1.67;1.57;;;23.50;53.80;;;;;;5462264;26;20436;-69
2024/04/12 03:59:34;;;;;;;1.30;1.20;;;23.50;53.80;;;;;;5462710;26;20296;-70
2024/04/12 04:02:06;;;;;;;1.87;1.23;;;23.50;53.80;;;;;;5461771;26;20464;-70
2024/04/12 04:04:37;;;;;;;1.50;1.30;;;23.50;53.80;;;;;;5461859;26;20556;-70
2024/04/12 04:07:05;;;;;;;1.70;1.60;;;23.50;53.80;;;;;;5461052;26;20497;-70
2024/04/12 04:09:32;;;;;;;1.40;0.90;;;23.60;53.90;;;;;;5460447;26;21056;-70
2024/04/12 04:11:58;;;;;;;1.63;1.40;;;23.50;53.80;;;;;;5460310;26;20630;-70
2024/04/12 04:14:27;;;;;;;1.20;1.00;;;23.50;53.80;;;;;;5460460;26;20504;-70
2024/04/12 04:16:55;;;;;;;1.20;1.03;;;23.50;53.80;;;;;;5460748;26;20979;-71
2024/04/12 04:19:35;;;;;;;1.40;1.20;;;23.50;54.40;;;;;;5460599;26;21321;-69
2024/04/12 04:22:02;;;;;;;1.73;1.60;;;23.50;53.80;;;;;;5460475;26;20468;-71
2024/04/12 04:24:33;;;;;;;2.70;1.50;;;23.50;53.80;;;;;;5461116;26;21002;-70
2024/04/12 04:27:08;;;;;;;2.37;1.50;;;23.50;53.80;;;;;;5460578;26;20528;-69
2024/04/12 04:29:35;;;;;;;1.53;1.43;;;23.50;53.70;;;;;;5460366;26;20448;-69
2024/04/12 04:32:00;;;;;;;1.60;1.23;;;23.60;53.60;;;;;;5463285;26;21054;-69
2024/04/12 04:34:27;;;;;;;3.63;1.50;;;23.50;53.40;;;;;;5465629;26;20526;-70
2024/04/12 04:36:56;;;;;;;1.60;1.50;;;23.50;53.30;;;;;;5465087;26;20227;-70
2024/04/12 04:39:24;;;;;;;3.43;1.63;;;23.50;53.10;;;;;;5465900;26;20962;-67
2024/04/12 04:41:51;;;;;;;1.70;1.60;;;23.50;53.10;;;;;;5465472;26;21077;-70
2024/04/12 04:44:17;;;;;;;1.87;1.50;;;23.50;53.20;;;;;;5465072;26;20449;-70
2024/04/12 04:46:44;;;;;;;1.40;1.17;;;23.50;53.30;;;;;;5465172;26;20445;-70
2024/04/12 04:49:15;;;;;;;2.03;1.33;;;23.50;53.30;;;;;;5465219;26;20441;-70
2024/04/12 04:51:40;;;;;;;1.90;1.70;;;23.50;53.40;;;;;;5466048;26;20511;-70
2024/04/12 04:54:11;;;;;;;1.50;1.23;;;23.50;53.50;;;;;;5465695;26;20507;-70
2024/04/12 04:56:40;;;;;;;2.50;1.60;;;23.50;54.10;;;;;;5466385;26;20250;-70
2024/04/12 04:59:08;;;;;;;1.43;1.20;;;23.50;53.50;;;;;;5465921;26;20472;-71
2024/04/12 05:01:36;;;;;;;1.80;1.20;;;23.50;53.60;;;;;;5465781;26;20575;-69
2024/04/12 05:04:02;;;;;;;1.93;1.10;;;23.50;53.60;;;;;;5463441;26;20437;-70
2024/04/12 05:06:29;;;;;;;1.60;1.50;;;23.50;53.60;;;;;;5460991;26;20449;-69
2024/04/12 05:08:56;;;;;;;1.80;1.70;;;23.50;53.60;;;;;;5458249;26;21068;-67
2024/04/12 05:11:24;;;;;;;1.60;1.50;;;23.50;53.60;;;;;;5452523;26;20465;-69
2024/04/12 05:13:55;;;;;;;2.00;1.67;;;23.50;53.60;;;;;;5451528;26;20504;-70
2024/04/12 05:16:22;;;;;;;1.97;1.70;;;23.50;53.60;;;;;;5451266;26;20566;-70
2024/04/12 05:18:48;;;;;;;1.53;1.43;;;23.50;53.40;;;;;;5453753;26;20445;-69
2024/04/12 05:21:15;;;;;;;2.10;1.80;;;23.50;53.20;;;;;;5452983;26;20516;-70
2024/04/12 05:23:41;;;;;;;2.60;2.00;;;23.50;52.90;;;;;;5452912;26;20535;-69
2024/04/12 05:26:09;;;;;;;2.67;1.80;;;23.50;52.70;;;;;;5452898;26;20453;-70
2024/04/12 05:28:35;;;;;;;2.43;2.10;;;23.50;52.60;;;;;;5452359;26;20223;-69
2024/04/12 05:31:02;;;;;;;5.23;2.13;;;23.50;52.50;;;;;;5451776;26;20469;-69
2024/04/12 05:33:29;;;;;;;2.53;2.30;;;23.50;52.40;;;;;;5452725;26;20512;-70
2024/04/12 05:35:56;;;;;;;2.40;1.80;;;23.50;52.30;;;;;;5452487;26;20444;-69
2024/04/12 05:38:23;;;;;;;2.50;2.30;;;23.50;52.30;;;;;;5453356;26;20448;-70
2024/04/12 05:40:53;;;;;;;2.00;1.80;;;23.50;52.30;;;;;;5452885;26;20547;-72
2024/04/12 05:43:21;;;;;;;3.10;1.90;;;23.50;52.40;;;;;;5452525;26;20433;-70
2024/04/12 05:45:49;;;;;;;2.27;1.67;;;23.50;52.50;;;;;;5452655;26;21451;-70
2024/04/12 05:48:21;;;;;;;2.50;1.60;;;23.50;52.70;;;;;;5452421;26;20449;-70
2024/04/12 05:50:48;;;;;;;1.83;1.63;;;23.50;52.80;;;;;;5452567;26;20445;-69
2024/04/12 05:53:19;;;;;;;2.33;1.53;;;23.50;52.90;;;;;;5452546;26;20512;-68
2024/04/12 05:55:45;;;;;;;1.67;1.50;;;23.50;52.90;;;;;;5452444;26;20505;-70
2024/04/12 05:58:14;;;;;;;2.20;1.70;;;23.50;52.90;;;;;;5452119;26;20791;-70
2024/04/12 06:00:41;;;;;;;1.30;1.20;;;23.50;53.00;;;;;;5452648;26;20578;-69
2024/04/12 06:03:14;;;;;;;1.97;1.50;;;23.50;53.00;;;;;;5451882;26;20449;-69
2024/04/12 06:05:40;;;;;;;2.23;1.70;;;23.50;53.10;;;;;;5451791;26;20441;-68
2024/04/12 06:08:06;;;;;;;2.50;1.53;;;23.50;53.10;;;;;;5451824;26;20441;-69
2024/04/12 06:10:32;;;;;;;1.50;1.40;;;23.50;53.10;;;;;;5451811;26;20465;-69
2024/04/12 06:13:06;;;;;;;1.90;1.50;;;23.50;53.10;;;;;;5451598;26;20798;-69
2024/04/12 06:15:36;;;;;;;1.60;1.50;;;23.50;53.10;;;;;;5451368;26;20819;-70
2024/04/12 06:18:05;;;;;;;2.73;1.90;;;23.50;53.10;;;;;;5451924;26;20512;-70
2024/04/12 06:20:34;;;;;;;1.53;1.30;;;23.50;53.70;;;;;;5451270;26;20484;-70
2024/04/12 06:23:10;;;;;;;2.00;1.80;;;23.50;53.10;;;;;;5451571;26;20444;-70
2024/04/12 06:25:44;;;;;;;1.97;1.60;;;23.50;53.10;;;;;;5451682;26;20591;-71
2024/04/12 06:28:14;;;;;;;2.27;1.50;;;23.60;53.20;;;;;;5451131;26;20469;-70
2024/04/12 06:30:45;;;;;;;2.17;1.40;;;23.50;53.30;;;;;;5451441;26;21069;-69
2024/04/12 06:33:19;;;;;;;1.70;1.60;;;23.60;53.20;;;;;;5451083;26;20449;-70
2024/04/12 06:35:45;;;;;;;1.70;1.40;;;23.50;53.20;;;;;;5451916;26;20448;-69
2024/04/12 06:38:17;;;;;;;2.03;1.50;;;23.50;53.20;;;;;;5449016;26;20453;-69
2024/04/12 06:40:53;;;;;;;1.37;1.27;;;23.50;53.20;;;;;;5451424;26;21063;-68
2024/04/12 06:43:20;;;;;;;1.40;1.30;;;23.60;53.30;;;;;;5449401;26;20448;-69
2024/04/12 06:46:00;;;;;;;2.03;1.60;;;23.60;53.30;;;;;;5451015;26;20493;-69
2024/04/12 06:48:26;;;;;;;1.97;1.77;;;23.60;53.30;;;;;;5449435;26;20494;-71
2024/04/12 06:50:56;;;;;;;1.87;1.53;;;23.60;53.30;;;;;;5450920;26;21043;-69
2024/04/12 06:53:25;;;;;;;2.20;1.60;;;23.60;53.90;;;;;;5448448;26;21026;-69
2024/04/12 06:55:58;;;;;;;2.20;1.60;;;23.60;53.30;;;;;;5451034;26;20461;-69
2024/04/12 06:58:25;;;;;;;1.57;1.47;;;23.60;53.30;;;;;;5450377;26;20975;-69
2024/04/12 07:00:57;;;;;;;1.70;1.60;;;23.60;53.30;;;;;;5450452;26;20461;-70
2024/04/12 07:03:23;;;;;;;2.50;1.47;;;23.60;53.40;;;;;;5450731;26;20999;-70
2024/04/12 07:05:49;;;;;;;1.77;1.40;;;23.60;53.40;;;;;;5450533;26;20480;-69
2024/04/12 07:08:18;;;;;;;1.27;1.00;;;23.60;53.40;;;;;;5450312;26;20509;-70
2024/04/12 07:10:48;;;;;;;1.63;1.33;;;23.60;53.40;;;;;;5450672;26;21416;-70
2024/04/12 07:13:15;;;;;;;2.13;1.43;;;23.60;53.40;;;;;;5450389;26;20437;-70
2024/04/12 07:15:41;;;;;;;2.40;1.60;;;23.60;53.40;;;;;;5450193;26;20441;-70
2024/04/12 07:18:11;;;;;;;1.40;1.30;;;23.60;53.40;;;;;;5450505;26;20433;-70
2024/04/12 07:20:40;;;;;;;1.77;1.53;;;23.60;53.40;;;;;;5450550;26;20235;-71
2024/04/12 07:23:10;;;;;;;1.60;1.50;;;23.60;53.90;;;;;;5450201;26;20505;-68
2024/04/12 07:25:39;;;;;;;2.40;1.50;;;23.60;53.90;;;;;;5450316;26;20445;-70
2024/04/12 07:28:08;;;;;;;1.40;1.30;;;23.60;53.40;;;;;;5453233;26;21065;-69
2024/04/12 07:30:33;;;;;;;1.40;1.20;;;23.70;53.50;;;;;;5453364;26;20864;-70
2024/04/12 07:32:59;;;;;;;2.23;1.77;;;23.70;53.50;;;;;;5454316;26;20484;-70
2024/04/12 07:35:26;;;;;;;2.30;1.97;;;23.60;53.40;;;;;;5453945;26;20228;-69
2024/04/12 07:37:59;;;;;;;1.77;1.17;;;23.70;53.50;;;;;;5453531;26;20917;-69
2024/04/12 07:40:30;;;;;;;1.47;1.37;;;23.70;53.50;;;;;;5453521;26;20978;-70
2024/04/12 07:42:57;;;;;;;1.87;1.67;;;23.70;53.50;;;;;;5453574;26;20500;-68
2024/04/12 07:45:24;;;;;;;1.40;1.17;;;23.70;53.50;;;;;;5453701;26;20779;-70
2024/04/12 07:48:00;;;;;;;1.50;1.30;;;23.70;53.50;;;;;;5454182;26;20504;-68
2024/04/12 07:50:31;;;;;;;2.03;1.50;;;23.70;53.50;;;;;;5454061;26;20982;-69
2024/04/12 07:53:43;;;;;;;1.83;1.17;;;23.70;53.50;;;;;;5451415;26;20452;-70
2024/04/12 07:56:16;;;;;;;1.30;1.10;;;23.70;53.50;;;;;;5444081;26;20543;-71
2024/04/12 07:58:42;;;;;;;1.57;1.23;;;23.70;53.50;;;;;;5453148;26;20978;-69
2024/04/12 08:01:10;;;;;;;1.77;1.33;;;23.70;53.60;;;;;;5453210;26;21512;-70
2024/04/12 08:03:39;;;;;;;1.70;1.40;;;23.70;53.60;;;;;;5454204;26;20445;-69
2024/04/12 08:06:18;;;;;;;1.60;1.50;;;23.70;53.60;;;;;;5453553;26;20516;-69
2024/04/12 08:08:45;;;;;;;2.23;1.50;;;23.70;53.60;;;;;;5454044;26;20444;-69
2024/04/12 08:11:33;;;;;;;1.53;1.20;;;23.70;53.60;;;;;;5453113;26;20515;-69
2024/04/12 08:14:06;;;;;;;1.70;1.53;;;23.70;53.60;;;;;;5453970;26;20563;-67
2024/04/12 08:16:36;;;;;;;1.10;1.00;;;23.70;53.60;;;;;;5453443;26;20448;-69
2024/04/12 08:19:21;;;;;;;1.70;1.30;;;23.70;53.60;;;;;;5453882;26;20576;-70
2024/04/12 08:21:48;;;;;;;1.60;1.20;;;23.70;53.60;;;;;;5453665;26;20524;-69
2024/04/12 08:24:22;;;;;;;2.03;1.30;;;23.70;53.60;;;;;;5453526;26;20530;-69
2024/04/12 08:26:55;;;;;;;2.27;1.50;;;23.70;53.60;;;;;;5453726;26;20501;-69
2024/04/12 08:29:26;;;;;;;1.70;1.43;;;23.70;53.60;;;;;;5451487;26;20456;-69
2024/04/12 08:32:13;;;;;;;1.13;1.03;;;23.70;54.20;;;;;;5453407;26;20441;-69
2024/04/12 08:34:45;;;;;;;1.33;1.13;;;23.70;53.60;;;;;;5453035;26;20512;-69
2024/04/12 08:37:14;;;;;;;1.80;1.70;;;23.70;53.70;;;;;;5452933;26;20465;-69
2024/04/12 08:39:43;;;;;;;1.47;1.37;;;23.70;53.70;;;;;;5452461;26;20501;-69
2024/04/12 08:42:14;;;;;;;1.30;1.10;;;23.70;53.60;;;;;;5453568;26;20453;-69
2024/04/12 08:44:40;;;;;;;1.83;1.50;;;23.70;53.60;;;;;;5453445;26;20983;-68
2024/04/12 08:47:28;;;;;;;2.33;1.33;;;23.70;53.60;;;;;;5453435;26;20536;-69
2024/04/12 08:50:03;;;;;;;1.33;1.10;;;23.70;53.60;;;;;;5452783;26;20493;-71
2024/04/12 08:52:43;;;;;;;1.40;1.20;;;23.70;53.60;;;;;;5452502;26;20515;-71
2024/04/12 08:55:13;;;;;;;1.90;1.27;;;23.70;53.60;;;;;;5452983;26;20813;-69
2024/04/12 08:57:42;;;;;;;1.30;1.10;;;23.70;53.70;;;;;;5453012;26;20975;-70
2024/04/12 09:00:18;;;;;;;1.60;1.20;;;23.80;53.70;;;;;;5452927;26;20560;-69
2024/04/12 09:02:58;;;;;;;1.90;1.40;;;23.70;53.70;;;;;;5452895;26;20851;-69
2024/04/12 09:05:27;;;;;;;1.40;1.10;;;23.80;53.70;;;;;;5452548;26;21025;-69
2024/04/12 09:07:59;;;;;;;1.90;1.30;;;23.70;53.70;;;;;;5452716;26;20570;-70
2024/04/12 09:10:27;;;;;;;2.70;1.80;;;23.70;53.70;;;;;;5452481;26;20449;-69
2024/04/12 09:12:53;;;;;;;1.43;1.23;;;23.80;53.70;;;;;;5452754;26;20616;-69
2024/04/12 09:15:27;;;;;;;1.67;1.37;;;23.70;53.70;;;;;;5451891;26;20490;-69
2024/04/12 09:18:17;;;;;;;1.47;1.30;;;23.80;53.90;;;;;;5452268;26;20519;-69
2024/04/12 09:20:44;;;;;;;1.33;1.10;;;23.80;53.70;;;;;;5452379;26;20914;-69
2024/04/12 09:23:20;;;;;;;1.70;1.30;;;23.70;53.70;;;;;;5452816;26;20546;-69
2024/04/12 09:25:58;;;;;;;2.00;1.47;;;23.80;53.70;;;;;;5452991;26;20520;-69
2024/04/12 09:28:37;;;;;;;1.83;1.50;;;23.80;53.70;;;;;;5452670;26;20464;-70
2024/04/12 09:33:50;;;;;;;2.00;1.30;;;23.80;53.80;;;;;;5452696;26;20501;-69
2024/04/12 09:36:38;;;;;;;1.40;1.10;;;23.80;53.80;;;;;;5452252;26;21122;-70
2024/04/12 09:39:14;;;;;;;1.50;1.23;;;23.80;53.80;;;;;;5452891;26;20444;-68
2024/04/12 09:41:56;;;;;;;2.10;1.90;;;23.80;53.80;;;;;;5452550;26;20527;-71
2024/04/12 09:44:27;;;;;;;1.30;1.20;;;23.80;53.80;;;;;;5452798;26;20502;-71
2024/04/12 10:37:29;;;;;;;31.87;14.43;;;23.70;52.70;;;;;;5451214;26;20534;-70
2024/04/12 10:40:04;;;;;;;32.43;16.57;;;23.70;52.60;;;;;;5451450;26;20448;-69
2024/04/12 10:42:31;;;;;;;42.97;20.10;;;23.70;52.60;;;;;;5451455;26;20797;-69
2024/04/12 10:44:59;;;;;;;38.00;19.83;;;23.70;52.50;;;;;;5451753;26;20429;-70
2024/04/12 10:47:25;;;;;;;45.57;20.07;;;23.70;52.50;;;;;;5451665;26;20453;-69
2024/04/12 10:49:52;;;;;;;39.40;18.97;;;23.70;52.50;;;;;;5451118;26;20449;-71
2024/04/12 10:52:28;;;;;;;49.23;21.53;;;23.70;52.50;;;;;;5451385;26;20449;-70
2024/04/12 10:54:56;;;;;;;34.60;19.80;;;23.70;52.50;;;;;;5449695;26;20496;-69
2024/04/12 10:57:27;;;;;;;42.87;19.50;;;23.70;52.40;;;;;;5451178;26;21052;-70
2024/04/12 10:59:53;;;;;;;44.60;19.93;;;23.70;52.40;;;;;;5451349;26;20563;-68
2024/04/12 11:02:19;;;;;;;40.00;17.33;;;23.70;52.40;;;;;;5453213;26;20513;-70
2024/04/12 11:07:30;;;;;;;39.63;17.00;;;23.70;52.40;;;;;;5454365;26;20680;-70
2024/04/12 11:09:59;;;;;;;34.57;18.03;;;23.70;52.50;;;;;;5452517;26;20452;-69
2024/04/12 11:12:29;;;;;;;39.00;17.83;;;23.70;52.50;;;;;;5454561;26;20568;-68
2024/04/12 11:15:13;;;;;;;29.97;16.20;;;23.70;52.40;;;;;;5454319;26;20831;-69
2024/04/12 11:31:39;;;;;;;27.17;13.90;;;23.60;52.10;;;;;;5450349;26;20568;-71
2024/04/12 11:34:08;;;;;;;35.27;16.00;;;23.60;52.10;;;;;;5454090;26;20504;-69
2024/04/12 11:36:39;;;;;;;26.57;13.43;;;23.60;52.00;;;;;;5453809;26;20440;-69
2024/04/12 11:39:17;;;;;;;27.67;13.13;;;23.60;52.10;;;;;;5453963;26;20445;-69
2024/04/12 11:41:49;;;;;;;23.83;13.50;;;23.60;52.00;;;;;;5453663;26;20464;-68
2024/04/12 11:44:17;;;;;;;27.90;13.57;;;23.60;52.10;;;;;;5453503;26;20564;-69
2024/04/12 11:46:47;;;;;;;28.47;13.87;;;23.60;52.10;;;;;;5453391;26;20449;-69
2024/04/12 11:49:25;;;;;;;22.70;12.00;;;23.60;52.30;;;;;;5453287;26;20449;-69
2024/04/12 11:52:03;;;;;;;24.50;13.50;;;23.70;52.40;;;;;;5453691;26;20456;-69
2024/04/12 11:54:30;;;;;;;21.90;12.60;;;23.60;52.30;;;;;;5453849;26;20456;-68
2024/04/12 11:56:59;;;;;;;19.43;10.70;;;23.60;52.20;;;;;;5453735;26;20504;-68
2024/04/12 11:59:27;;;;;;;19.30;10.57;;;23.70;52.20;;;;;;5453537;26;21128;-68
2024/04/12 12:01:54;;;;;;;17.53;10.13;;;23.60;52.20;;;;;;5453888;26;20555;-69
2024/04/12 12:04:22;;;;;;;16.07;9.50;;;23.70;52.20;;;;;;5453429;26;20460;-69
2024/04/12 12:06:48;;;;;;;18.83;9.27;;;23.60;52.20;;;;;;5451823;26;20476;-68
2024/04/12 12:09:13;;;;;;;24.93;11.27;;;23.60;52.20;;;;;;5453135;26;20497;-69
2024/04/12 12:11:43;;;;;;;18.30;9.83;;;23.60;52.20;;;;;;5453264;26;20219;-69
2024/04/12 12:14:09;;;;;;;23.40;10.80;;;23.60;52.30;;;;;;5452971;26;20223;-69
2024/04/12 12:16:36;;;;;;;21.90;10.47;;;23.60;52.30;;;;;;5453378;26;20453;-68
2024/04/12 12:19:02;;;;;;;22.10;9.90;;;23.60;52.30;;;;;;5453231;26;20505;-69
2024/04/12 12:21:28;;;;;;;19.33;10.80;;;23.70;52.40;;;;;;5453417;26;20460;-66
2024/04/12 12:23:55;;;;;;;20.60;9.77;;;23.60;52.30;;;;;;5453016;26;20445;-68
2024/04/12 12:26:22;;;;;;;17.40;9.90;;;23.60;52.30;;;;;;5453041;26;20519;-68
2024/04/12 12:28:47;;;;;;;18.37;9.83;;;23.60;52.30;;;;;;5453035;26;20532;-71
2024/04/12 12:31:17;;;;;;;16.90;8.40;;;23.60;52.30;;;;;;5453385;26;20516;-69
2024/04/12 12:33:45;;;;;;;15.57;8.53;;;23.70;52.40;;;;;;5453317;26;20262;-69
2024/04/12 12:36:11;;;;;;;21.00;9.80;;;23.60;52.30;;;;;;5452991;26;20452;-69
2024/04/12 12:38:40;;;;;;;20.70;8.87;;;23.60;52.30;;;;;;5452839;26;20444;-69
2024/04/12 12:41:09;;;;;;;20.73;10.30;;;23.60;52.40;;;;;;5453176;26;20922;-70
2024/04/12 12:43:35;;;;;;;19.10;9.80;;;23.60;52.40;;;;;;5452911;26;20456;-68
2024/04/12 12:46:00;;;;;;;17.60;8.73;;;23.60;52.40;;;;;;5452858;26;21051;-69
2024/04/12 12:48:29;;;;;;;15.50;8.93;;;23.60;52.40;;;;;;5452767;26;20278;-69
2024/04/12 12:50:55;;;;;;;20.10;8.93;;;23.60;52.40;;;;;;5452899;26;20238;-68
2024/04/12 12:53:22;;;;;;;14.10;8.80;;;23.60;52.40;;;;;;5452744;26;20516;-69
2024/04/12 12:55:51;;;;;;;17.17;8.83;;;23.60;52.40;;;;;;5452754;26;20466;-69
2024/04/12 12:58:21;;;;;;;18.67;8.43;;;23.60;52.40;;;;;;5453115;26;20441;-70
2024/04/12 13:00:47;;;;;;;13.90;7.73;;;23.60;52.50;;;;;;5451677;26;20599;-68
2024/04/12 13:03:17;;;;;;;14.40;7.43;;;23.60;52.50;;;;;;5452135;26;20865;-67
2024/04/12 13:05:48;;;;;;;13.73;8.43;;;23.60;52.50;;;;;;5451832;26;20783;-69
2024/04/12 13:08:15;;;;;;;14.37;7.70;;;23.60;52.50;;;;;;5451807;26;20449;-69
2024/04/12 13:10:42;;;;;;;12.20;6.43;;;23.60;52.60;;;;;;5451581;26;20521;-69
2024/04/12 13:13:17;;;;;;;15.60;8.17;;;23.60;52.60;;;;;;5451355;26;20493;-69
2024/04/12 13:15:43;;;;;;;14.73;6.80;;;23.60;52.60;;;;;;5451626;26;20436;-69
2024/04/12 13:18:09;;;;;;;9.00;6.10;;;23.60;52.60;;;;;;5451496;26;20445;-70
2024/04/12 13:20:36;;;;;;;10.97;6.50;;;23.60;52.60;;;;;;5460653;26;21033;-69
2024/04/12 13:23:03;;;;;;;12.17;6.70;;;23.60;52.60;;;;;;5452116;26;20231;-70
2024/04/12 13:25:29;;;;;;;15.13;7.90;;;23.60;52.60;;;;;;5451322;26;20562;-70
2024/04/12 13:27:54;;;;;;;12.30;6.30;;;23.60;52.60;;;;;;5451668;26;20517;-69
2024/04/12 13:30:21;;;;;;;15.53;6.60;;;23.60;52.60;;;;;;5451201;26;20449;-69
2024/04/12 13:32:53;;;;;;;11.53;6.40;;;23.60;52.60;;;;;;5441953;26;20228;-70
2024/04/12 13:35:21;;;;;;;11.43;6.60;;;23.60;52.60;;;;;;5447692;26;20560;-69
2024/04/12 13:37:48;;;;;;;11.83;6.50;;;23.60;52.70;;;;;;5452455;26;20853;-70
2024/04/12 13:40:20;;;;;;;11.63;6.43;;;23.60;52.60;;;;;;5451976;26;20520;-67
2024/04/12 13:42:48;;;;;;;13.73;7.03;;;23.60;52.60;;;;;;5451652;26;20532;-70
2024/04/12 13:50:55;;;;;;;13.43;6.17;;;23.60;52.70;;;;;;5432823;26;20524;-70
2024/04/12 13:53:35;;;;;;;11.40;7.13;;;23.60;52.70;;;;;;5432320;26;20498;-68
2024/04/12 13:56:25;;;;;;;9.20;5.87;;;23.60;52.70;;;;;;5432249;26;20431;-70
2024/04/12 13:59:01;;;;;;;10.77;5.93;;;23.60;52.70;;;;;;5432714;26;20485;-70
2024/04/12 14:01:31;;;;;;;10.47;5.87;;;23.60;52.70;;;;;;5433128;26;20454;-70
2024/04/12 14:04:04;;;;;;;11.10;6.50;;;23.60;52.70;;;;;;5432012;26;20506;-69
2024/04/12 14:06:34;;;;;;;10.40;5.77;;;23.60;52.70;;;;;;5433092;26;20442;-69
2024/04/12 14:09:02;;;;;;;9.50;5.80;;;23.60;52.70;;;;;;5432920;26;20498;-68
2024/04/12 14:11:28;;;;;;;10.07;5.87;;;23.60;52.70;;;;;;5432958;26;20478;-69
2024/04/12 14:13:54;;;;;;;12.37;5.60;;;23.60;52.70;;;;;;5424357;26;20545;-69
2024/04/12 14:16:32;;;;;;;8.17;5.27;;;23.60;52.70;;;;;;5423381;26;20229;-69
2024/04/12 14:18:58;;;;;;;7.40;5.00;;;23.60;52.70;;;;;;5423080;26;20485;-69
2024/04/12 14:21:24;;;;;;;9.47;5.17;;;23.60;52.70;;;;;;5421949;26;20549;-69